createdAt,value
2019-06-25T00:00:34.747Z,0.00
2019-06-25T00:01:34.711Z,0.00
2019-06-25T00:02:34.672Z,0.00
2019-06-25T00:03:34.659Z,0.00
2019-06-25T00:04:34.606Z,0.00
2019-06-25T00:05:34.579Z,0.00
2019-06-25T00:06:34.595Z,0.00
2019-06-25T00:07:34.499Z,0.00
2019-06-25T00:08:34.475Z,0.00
2019-06-25T00:09:34.441Z,0.00
2019-06-25T00:10:34.396Z,0.00
2019-06-25T00:11:34.407Z,0.00
2019-06-25T00:12:34.333Z,0.00
2019-06-25T00:13:34.303Z,0.00
2019-06-25T00:14:34.263Z,0.00
2019-06-25T00:15:34.229Z,0.00
2019-06-25T00:16:34.219Z,0.00
2019-06-25T00:17:34.219Z,0.00
2019-06-25T00:18:34.148Z,0.00
2019-06-25T00:19:34.103Z,0.00
2019-06-25T00:20:34.085Z,0.00
2019-06-25T00:21:34.057Z,0.00
2019-06-25T00:22:33.996Z,0.00
2019-06-25T00:23:34.015Z,0.00
2019-06-25T00:24:33.930Z,0.00
2019-06-25T00:25:33.941Z,0.00
2019-06-25T00:26:33.890Z,0.00
2019-06-25T00:27:33.875Z,0.00
2019-06-25T00:28:33.801Z,0.00
2019-06-25T00:29:33.770Z,0.00
2019-06-25T00:30:33.723Z,0.00
2019-06-25T00:31:33.711Z,0.00
2019-06-25T00:32:33.645Z,0.00
2019-06-25T00:33:33.626Z,0.00
2019-06-25T00:34:33.569Z,0.00
2019-06-25T00:35:33.553Z,0.00
2019-06-25T00:36:33.504Z,0.00
2019-06-25T00:37:33.462Z,0.00
2019-06-25T00:38:33.432Z,0.00
2019-06-25T00:39:33.396Z,0.00
2019-06-25T00:40:33.373Z,0.00
2019-06-25T00:41:33.323Z,0.00
2019-06-25T00:42:33.289Z,0.00
2019-06-25T00:43:33.257Z,0.00
2019-06-25T00:44:33.218Z,0.00
2019-06-25T00:45:33.187Z,0.00
2019-06-25T00:46:33.152Z,0.00
2019-06-25T00:47:33.156Z,0.00
2019-06-25T00:48:33.106Z,0.00
2019-06-25T00:49:33.099Z,0.00
2019-06-25T00:50:33.055Z,0.00
2019-06-25T00:51:33.002Z,0.00
2019-06-25T00:52:32.958Z,0.00
2019-06-25T00:53:32.921Z,0.00
2019-06-25T00:54:32.915Z,0.00
2019-06-25T00:55:32.895Z,0.00
2019-06-25T00:56:32.828Z,0.00
2019-06-25T00:57:32.785Z,0.00
2019-06-25T00:58:32.783Z,0.00
2019-06-25T00:59:32.726Z,0.00
2019-06-25T01:00:32.673Z,0.00
2019-06-25T01:01:32.648Z,0.00
2019-06-25T01:02:32.588Z,0.00
2019-06-25T01:03:32.565Z,0.00
2019-06-25T01:04:32.525Z,0.00
2019-06-25T01:05:32.491Z,0.00
2019-06-25T01:06:32.455Z,0.00
2019-06-25T01:07:32.430Z,0.00
2019-06-25T01:08:32.382Z,0.00
2019-06-25T01:09:32.353Z,0.00
2019-06-25T01:10:32.319Z,0.00
2019-06-25T01:11:32.280Z,0.00
2019-06-25T01:12:32.245Z,0.00
2019-06-25T01:13:32.222Z,0.00
2019-06-25T01:14:32.171Z,0.00
2019-06-25T01:15:32.140Z,0.00
2019-06-25T01:16:32.102Z,0.00
2019-06-25T01:17:32.069Z,0.00
2019-06-25T01:18:32.050Z,0.00
2019-06-25T01:19:32.009Z,0.00
2019-06-25T01:20:32.025Z,0.00
2019-06-25T01:21:31.953Z,0.00
2019-06-25T01:22:31.941Z,0.00
2019-06-25T01:23:31.885Z,0.00
2019-06-25T01:24:31.853Z,0.00
2019-06-25T01:25:31.789Z,0.00
2019-06-25T01:26:31.767Z,0.00
2019-06-25T01:27:31.736Z,0.00
2019-06-25T01:28:31.689Z,0.00
2019-06-25T01:29:31.670Z,0.00
2019-06-25T01:30:31.650Z,0.00
2019-06-25T01:31:31.597Z,0.00
2019-06-25T01:32:31.631Z,0.00
2019-06-25T01:33:31.540Z,0.00
2019-06-25T01:34:31.462Z,0.00
2019-06-25T01:35:31.436Z,0.00
2019-06-25T01:36:31.403Z,0.00
2019-06-25T01:37:31.396Z,0.00
2019-06-25T01:38:31.335Z,0.00
2019-06-25T01:39:31.314Z,0.00
2019-06-25T01:40:31.257Z,0.00
2019-06-25T01:41:31.223Z,0.00
2019-06-25T01:42:31.194Z,0.00
2019-06-25T01:43:31.150Z,0.00
2019-06-25T01:44:31.116Z,0.00
2019-06-25T01:45:31.078Z,0.00
2019-06-25T01:46:31.046Z,0.00
2019-06-25T01:47:31.022Z,0.00
2019-06-25T01:48:31.019Z,0.00
2019-06-25T01:49:30.988Z,0.00
2019-06-25T01:50:30.933Z,0.00
2019-06-25T01:51:30.883Z,0.00
2019-06-25T01:52:30.855Z,0.00
2019-06-25T01:53:30.833Z,0.00
2019-06-25T01:54:30.808Z,0.00
2019-06-25T01:55:30.774Z,0.00
2019-06-25T01:56:30.727Z,0.00
2019-06-25T01:57:31.408Z,0.00
2019-06-25T01:58:30.638Z,0.00
2019-06-25T01:59:30.658Z,0.00
2019-06-25T02:00:43.904Z,0.00
2019-06-25T02:01:30.567Z,0.00
2019-06-25T02:02:30.500Z,0.00
2019-06-25T02:03:30.443Z,0.00
2019-06-25T02:04:30.408Z,0.00
2019-06-25T02:05:30.374Z,0.00
2019-06-25T02:06:30.344Z,0.00
2019-06-25T02:07:30.311Z,0.00
2019-06-25T02:08:30.265Z,0.00
2019-06-25T02:09:30.235Z,0.00
2019-06-25T02:10:30.207Z,0.00
2019-06-25T02:11:30.175Z,4.00
2019-06-25T02:12:30.127Z,4.00
2019-06-25T02:13:30.105Z,4.00
2019-06-25T02:14:30.061Z,4.00
2019-06-25T02:15:30.043Z,4.00
2019-06-25T02:16:30.011Z,4.00
2019-06-25T02:17:29.957Z,4.00
2019-06-25T02:18:29.928Z,8.00
2019-06-25T02:19:29.898Z,4.00
2019-06-25T02:20:29.849Z,4.00
2019-06-25T02:21:29.829Z,8.00
2019-06-25T02:22:29.819Z,8.00
2019-06-25T02:23:29.805Z,8.00
2019-06-25T02:24:29.753Z,12.00
2019-06-25T02:25:29.705Z,12.00
2019-06-25T02:26:29.662Z,12.00
2019-06-25T02:27:29.617Z,16.00
2019-06-25T02:28:29.592Z,16.00
2019-06-25T02:29:29.528Z,16.00
2019-06-25T02:30:29.534Z,24.00
2019-06-25T02:31:29.469Z,20.00
2019-06-25T02:32:29.431Z,24.00
2019-06-25T02:33:29.459Z,32.00
2019-06-25T02:34:29.351Z,36.00
2019-06-25T02:35:29.315Z,40.00
2019-06-25T02:36:29.287Z,44.00
2019-06-25T02:37:29.234Z,52.00
2019-06-25T02:38:29.247Z,56.00
2019-06-25T02:39:29.174Z,64.00
2019-06-25T02:40:29.146Z,76.00
2019-06-25T02:41:29.129Z,84.00
2019-06-25T02:42:29.101Z,96.00
2019-06-25T02:43:29.035Z,108.00
2019-06-25T02:44:29.004Z,124.00
2019-06-25T02:45:28.966Z,140.00
2019-06-25T02:46:28.924Z,160.00
2019-06-25T02:47:28.882Z,180.00
2019-06-25T02:48:28.852Z,204.00
2019-06-25T02:49:28.843Z,224.00
2019-06-25T02:50:28.852Z,248.00
2019-06-25T02:51:28.774Z,276.00
2019-06-25T02:52:28.753Z,304.00
2019-06-25T02:53:28.703Z,332.00
2019-06-25T02:54:28.635Z,356.00
2019-06-25T02:55:28.623Z,388.00
2019-06-25T02:56:28.648Z,416.00
2019-06-25T02:57:28.587Z,448.00
2019-06-25T02:58:28.508Z,476.00
2019-06-25T02:59:28.474Z,508.00
2019-06-25T03:00:28.472Z,548.00
2019-06-25T03:01:30.057Z,588.00
2019-06-25T03:02:28.370Z,632.00
2019-06-25T03:03:28.319Z,676.00
2019-06-25T03:04:28.321Z,728.00
2019-06-25T03:05:28.252Z,772.00
2019-06-25T03:06:28.211Z,824.00
2019-06-25T03:07:28.180Z,876.00
2019-06-25T03:08:28.136Z,932.00
2019-06-25T03:09:28.104Z,988.00
2019-06-25T03:10:28.067Z,1044.00
2019-06-25T03:11:28.042Z,1104.00
2019-06-25T03:12:27.990Z,1164.00
2019-06-25T03:13:27.970Z,1224.00
2019-06-25T03:14:27.937Z,1288.00
2019-06-25T03:15:28.011Z,1348.00
2019-06-25T03:16:27.850Z,1412.00
2019-06-25T03:17:27.835Z,1476.00
2019-06-25T03:18:27.790Z,1544.00
2019-06-25T03:19:27.766Z,1616.00
2019-06-25T03:20:27.736Z,1680.00
2019-06-25T03:21:27.745Z,1748.00
2019-06-25T03:22:27.679Z,1812.00
2019-06-25T03:23:27.616Z,1880.00
2019-06-25T03:24:27.605Z,1944.00
2019-06-25T03:25:27.585Z,2008.00
2019-06-25T03:26:27.520Z,2076.00
2019-06-25T03:27:27.499Z,2168.00
2019-06-25T03:28:27.434Z,2256.00
2019-06-25T03:29:27.417Z,2332.00
2019-06-25T03:30:27.372Z,2404.00
2019-06-25T03:32:00.203Z,2472.00
2019-06-25T03:32:27.299Z,2564.00
2019-06-25T03:33:27.275Z,2652.00
2019-06-25T03:34:27.250Z,2740.00
2019-06-25T03:35:27.186Z,2820.00
2019-06-25T03:36:27.167Z,2892.00
2019-06-25T03:37:27.126Z,2976.00
2019-06-25T03:38:27.071Z,3056.00
2019-06-25T03:39:27.062Z,3124.00
2019-06-25T03:40:27.088Z,3196.00
2019-06-25T03:41:27.039Z,3272.00
2019-06-25T03:42:26.977Z,3376.00
2019-06-25T03:43:26.889Z,3488.00
2019-06-25T03:44:26.864Z,3600.00
2019-06-25T03:45:26.832Z,3708.00
2019-06-25T03:46:26.787Z,3812.00
2019-06-25T03:47:26.752Z,3912.00
2019-06-25T03:48:26.725Z,3996.00
2019-06-25T03:49:26.713Z,4080.00
2019-06-25T03:50:26.702Z,4164.00
2019-06-25T03:51:26.687Z,4244.00
2019-06-25T03:52:26.599Z,4328.00
2019-06-25T03:53:26.608Z,4408.00
2019-06-25T03:54:26.540Z,4488.00
2019-06-25T03:55:26.523Z,4576.00
2019-06-25T03:56:26.469Z,4664.00
2019-06-25T03:57:26.396Z,4752.00
2019-06-25T03:58:26.425Z,4916.00
2019-06-25T03:59:26.394Z,5012.00
2019-06-25T04:00:26.330Z,5012.00
2019-06-25T04:01:26.271Z,5104.00
2019-06-25T04:02:26.274Z,5300.00
2019-06-25T04:03:26.285Z,5556.00
2019-06-25T04:04:26.173Z,5644.00
2019-06-25T04:05:26.120Z,6064.00
2019-06-25T04:06:26.083Z,8420.00
2019-06-25T04:07:26.062Z,10856.00
2019-06-25T04:08:26.007Z,11248.00
2019-06-25T04:09:25.978Z,11304.00
2019-06-25T04:10:25.952Z,11544.00
2019-06-25T04:11:25.906Z,11856.00
2019-06-25T04:12:25.882Z,11872.00
2019-06-25T04:13:25.831Z,11892.00
2019-06-25T04:14:25.796Z,12492.00
2019-06-25T04:15:25.773Z,13088.00
2019-06-25T04:16:25.735Z,13124.00
2019-06-25T04:17:25.711Z,13484.00
2019-06-25T04:18:25.660Z,12844.00
2019-06-25T04:19:25.631Z,12596.00
2019-06-25T04:20:25.655Z,13092.00
2019-06-25T04:21:25.586Z,13956.00
2019-06-25T04:22:25.554Z,15104.00
2019-06-25T04:23:25.580Z,15232.00
2019-06-25T04:24:25.498Z,15168.00
2019-06-25T04:25:27.193Z,15712.00
2019-06-25T04:26:25.421Z,15360.00
2019-06-25T04:27:25.404Z,15200.00
2019-06-25T04:28:25.367Z,16032.00
2019-06-25T04:29:25.347Z,16992.00
2019-06-25T04:30:25.309Z,17344.00
2019-06-25T04:31:25.295Z,17312.00
2019-06-25T04:32:33.347Z,17376.00
2019-06-25T04:33:25.185Z,18112.00
2019-06-25T04:34:25.198Z,18368.00
2019-06-25T04:35:25.109Z,19456.00
2019-06-25T04:36:25.087Z,19456.00
2019-06-25T04:37:25.045Z,19808.00
2019-06-25T04:38:25.014Z,19040.00
2019-06-25T04:39:25.014Z,18528.00
2019-06-25T04:40:24.951Z,18464.00
2019-06-25T04:41:24.920Z,19392.00
2019-06-25T04:42:24.915Z,20192.00
2019-06-25T04:43:24.867Z,21248.00
2019-06-25T04:44:24.835Z,21632.00
2019-06-25T04:45:24.800Z,21728.00
2019-06-25T04:46:24.824Z,20000.00
2019-06-25T04:47:24.737Z,21024.00
2019-06-25T04:48:27.008Z,23456.00
2019-06-25T04:49:24.679Z,23904.00
2019-06-25T04:50:24.678Z,24128.00
2019-06-25T04:51:24.665Z,25152.00
2019-06-25T04:52:24.632Z,25920.00
2019-06-25T04:53:24.587Z,26624.00
2019-06-25T04:54:24.573Z,26368.00
2019-06-25T04:55:24.561Z,25056.00
2019-06-25T04:56:24.482Z,24544.00
2019-06-25T04:57:24.510Z,24736.00
2019-06-25T04:58:24.448Z,25696.00
2019-06-25T04:59:24.409Z,27200.00
2019-06-25T05:00:24.368Z,26784.00
2019-06-25T05:01:26.819Z,26944.00
2019-06-25T05:02:24.321Z,27168.00
2019-06-25T05:03:24.348Z,27424.00
2019-06-25T05:04:24.270Z,28064.00
2019-06-25T05:05:24.226Z,28544.00
2019-06-25T05:06:24.330Z,29696.00
2019-06-25T05:07:24.175Z,30912.00
2019-06-25T05:08:24.166Z,30944.00
2019-06-25T05:09:24.138Z,30432.00
2019-06-25T05:10:24.103Z,28704.00
2019-06-25T05:11:24.083Z,29760.00
2019-06-25T05:12:24.040Z,29600.00
2019-06-25T05:13:24.009Z,31136.00
2019-06-25T05:14:24.893Z,31872.00
2019-06-25T05:15:23.966Z,32160.00
2019-06-25T05:16:23.924Z,30304.00
2019-06-25T05:17:23.910Z,29824.00
2019-06-25T05:18:23.884Z,29152.00
2019-06-25T05:19:23.865Z,33152.00
2019-06-25T05:20:23.860Z,34304.00
2019-06-25T05:21:23.848Z,34944.00
2019-06-25T05:22:23.805Z,35360.00
2019-06-25T05:23:23.765Z,37024.00
2019-06-25T05:24:23.787Z,37696.00
2019-06-25T05:25:23.702Z,33632.00
2019-06-25T05:26:23.709Z,33760.00
2019-06-25T05:27:23.710Z,37120.00
2019-06-25T05:28:23.660Z,38016.00
2019-06-25T05:29:23.629Z,38592.00
2019-06-25T05:30:23.593Z,38784.00
2019-06-25T05:31:25.909Z,39392.00
2019-06-25T05:32:24.429Z,40736.00
2019-06-25T05:33:23.501Z,40832.00
2019-06-25T05:34:23.543Z,41632.00
2019-06-25T05:35:24.265Z,42688.00
2019-06-25T05:36:23.472Z,42080.00
2019-06-25T05:37:23.407Z,39904.00
2019-06-25T05:38:23.378Z,42528.00
2019-06-25T05:39:23.355Z,47648.00
2019-06-25T05:40:23.328Z,48000.00
2019-06-25T05:41:23.301Z,48640.00
2019-06-25T05:42:23.310Z,50080.00
2019-06-25T05:43:23.256Z,46432.00
2019-06-25T05:44:23.229Z,36224.00
2019-06-25T05:45:23.207Z,20864.00
2019-06-25T05:46:23.177Z,14824.00
2019-06-25T05:47:23.215Z,14520.00
2019-06-25T05:48:23.140Z,15444.00
2019-06-25T05:49:23.121Z,18016.00
2019-06-25T05:50:23.145Z,18912.00
2019-06-25T05:51:23.095Z,19328.00
2019-06-25T05:52:23.105Z,17068.00
2019-06-25T05:53:23.037Z,17840.00
2019-06-25T05:54:23.008Z,17032.00
2019-06-25T05:55:23.025Z,15328.00
2019-06-25T05:56:22.956Z,14812.00
2019-06-25T05:57:22.969Z,15484.00
2019-06-25T05:58:22.935Z,16780.00
2019-06-25T05:59:22.946Z,17552.00
2019-06-25T06:00:22.877Z,17324.00
2019-06-25T06:01:22.838Z,17104.00
2019-06-25T06:02:22.868Z,16440.00
2019-06-25T06:03:22.800Z,15940.00
2019-06-25T06:04:22.753Z,14960.00
2019-06-25T06:05:22.718Z,15080.00
2019-06-25T06:06:22.683Z,15884.00
2019-06-25T06:07:22.661Z,17060.00
2019-06-25T06:08:22.661Z,19232.00
2019-06-25T06:09:22.606Z,28320.00
2019-06-25T06:10:22.576Z,20928.00
2019-06-25T06:11:22.562Z,22688.00
2019-06-25T06:12:22.532Z,25408.00
2019-06-25T06:13:22.504Z,16280.00
2019-06-25T06:14:22.486Z,16924.00
2019-06-25T06:15:22.456Z,15032.00
2019-06-25T06:16:22.430Z,15584.00
2019-06-25T06:17:22.398Z,17204.00
2019-06-25T06:18:22.388Z,18816.00
2019-06-25T06:19:22.380Z,22400.00
2019-06-25T06:20:22.372Z,34784.00
2019-06-25T06:21:22.302Z,28864.00
2019-06-25T06:22:22.331Z,28704.00
2019-06-25T06:23:22.253Z,23616.00
2019-06-25T06:24:22.227Z,21536.00
2019-06-25T06:25:22.226Z,19872.00
2019-06-25T06:26:22.179Z,18560.00
2019-06-25T06:27:22.175Z,18636.00
2019-06-25T06:28:22.146Z,17888.00
2019-06-25T06:29:22.114Z,20096.00
2019-06-25T06:30:22.094Z,25056.00
2019-06-25T06:31:22.036Z,24992.00
2019-06-25T06:32:22.042Z,18488.00
2019-06-25T06:33:35.623Z,16608.00
2019-06-25T06:34:21.968Z,16388.00
2019-06-25T06:35:21.944Z,15960.00
2019-06-25T06:36:21.908Z,15736.00
2019-06-25T06:37:21.869Z,16000.00
2019-06-25T06:38:21.841Z,16152.00
2019-06-25T06:39:21.815Z,16356.00
2019-06-25T06:40:21.811Z,16844.00
2019-06-25T06:41:21.781Z,15996.00
2019-06-25T06:42:21.726Z,15712.00
2019-06-25T06:43:21.705Z,15864.00
2019-06-25T06:44:21.710Z,15376.00
2019-06-25T06:45:21.695Z,15680.00
2019-06-25T06:46:21.619Z,15992.00
2019-06-25T06:47:21.625Z,16332.00
2019-06-25T06:48:21.569Z,16348.00
2019-06-25T06:49:21.545Z,16484.00
2019-06-25T06:50:21.518Z,16828.00
2019-06-25T06:51:21.520Z,19840.00
2019-06-25T06:52:21.471Z,26752.00
2019-06-25T06:53:21.432Z,27680.00
2019-06-25T06:54:21.407Z,33376.00
2019-06-25T06:55:21.465Z,32992.00
2019-06-25T06:56:21.401Z,34048.00
2019-06-25T06:57:21.350Z,31104.00
2019-06-25T06:58:21.327Z,35680.00
2019-06-25T06:59:21.294Z,45344.00
2019-06-25T07:00:21.310Z,67904.00
2019-06-25T07:01:21.318Z,70208.00
2019-06-25T07:02:21.219Z,66112.00
2019-06-25T07:03:21.249Z,68160.00
2019-06-25T07:04:21.201Z,72576.00
2019-06-25T07:05:21.164Z,80480.00
2019-06-25T07:06:21.097Z,78848.00
2019-06-25T07:07:21.067Z,86560.00
2019-06-25T07:08:21.038Z,91712.00
2019-06-25T07:09:21.010Z,80288.00
2019-06-25T07:10:20.984Z,80416.00
2019-06-25T07:11:21.003Z,77312.00
2019-06-25T07:12:20.947Z,82112.00
2019-06-25T07:13:20.940Z,84128.00
2019-06-25T07:14:20.925Z,89824.00
2019-06-25T07:15:20.897Z,87200.00
2019-06-25T07:16:20.854Z,82016.00
2019-06-25T07:17:20.834Z,84256.00
2019-06-25T07:18:20.807Z,86176.00
2019-06-25T07:19:20.779Z,88704.00
2019-06-25T07:20:32.973Z,94208.00
2019-06-25T07:21:20.773Z,93024.00
2019-06-25T07:22:20.774Z,91968.00
2019-06-25T07:23:20.718Z,93280.00
2019-06-25T07:24:20.710Z,95808.00
2019-06-25T07:25:20.715Z,99712.00
2019-06-25T07:26:20.707Z,98336.00
2019-06-25T07:27:20.630Z,99520.00
2019-06-25T07:28:20.605Z,101600.00
2019-06-25T07:29:20.615Z,95040.00
2019-06-25T07:30:20.569Z,79744.00
2019-06-25T07:31:20.549Z,75232.00
2019-06-25T07:32:20.533Z,80256.00
2019-06-25T07:33:20.519Z,88096.00
2019-06-25T07:34:20.479Z,88992.00
2019-06-25T07:35:20.469Z,82592.00
2019-06-25T07:36:20.449Z,78432.00
2019-06-25T07:37:20.442Z,80960.00
2019-06-25T07:38:20.436Z,77792.00
2019-06-25T07:39:20.435Z,82880.00
2019-06-25T07:40:20.378Z,90432.00
2019-06-25T07:41:20.368Z,91840.00
2019-06-25T07:42:20.372Z,95680.00
2019-06-25T07:43:20.330Z,90624.00
2019-06-25T07:44:20.297Z,90144.00
2019-06-25T07:45:20.306Z,90016.00
2019-06-25T07:46:20.345Z,87712.00
2019-06-25T07:47:20.274Z,84640.00
2019-06-25T07:48:20.239Z,72544.00
2019-06-25T07:49:20.258Z,66176.00
2019-06-25T07:50:20.224Z,61056.00
2019-06-25T07:51:20.184Z,60992.00
2019-06-25T07:52:20.226Z,60000.00
2019-06-25T07:53:20.139Z,53632.00
2019-06-25T07:54:20.123Z,52320.00
2019-06-25T07:55:20.088Z,47488.00
2019-06-25T07:56:35.039Z,50656.00
2019-06-25T07:57:20.063Z,61920.00
2019-06-25T07:58:22.742Z,63232.00
2019-06-25T07:59:20.011Z,64480.00
2019-06-25T08:00:19.983Z,86368.00
2019-06-25T08:01:20.002Z,93024.00
2019-06-25T08:02:19.968Z,91104.00
2019-06-25T08:03:19.975Z,102944.00
2019-06-25T08:04:25.396Z,104992.00
2019-06-25T08:05:19.885Z,105440.00
2019-06-25T08:06:19.890Z,102848.00
2019-06-25T08:07:19.878Z,97504.00
2019-06-25T08:08:19.881Z,100480.00
2019-06-25T08:09:19.809Z,100672.00
2019-06-25T08:10:19.866Z,101120.00
2019-06-25T08:11:19.813Z,100992.00
2019-06-25T08:12:19.800Z,99616.00
2019-06-25T08:13:19.776Z,105248.00
2019-06-25T08:14:19.715Z,109344.00
2019-06-25T08:15:19.707Z,112096.00
2019-06-25T08:16:19.694Z,111136.00
2019-06-25T08:17:19.672Z,110560.00
2019-06-25T08:18:19.644Z,104160.00
2019-06-25T08:19:19.629Z,96736.00
2019-06-25T08:20:19.611Z,93056.00
2019-06-25T08:21:19.587Z,91584.00
2019-06-25T08:22:19.574Z,89088.00
2019-06-25T08:23:19.557Z,90336.00
2019-06-25T08:24:19.643Z,97184.00
2019-06-25T08:25:19.542Z,93088.00
2019-06-25T08:26:19.515Z,98912.00
2019-06-25T08:27:19.520Z,98368.00
2019-06-25T08:28:19.462Z,92416.00
2019-06-25T08:29:19.580Z,86848.00
2019-06-25T08:30:19.482Z,74624.00
2019-06-25T08:31:19.445Z,72896.00
2019-06-25T08:32:19.454Z,81248.00
2019-06-25T08:33:19.406Z,79936.00
2019-06-25T08:34:19.363Z,85376.00
2019-06-25T08:35:19.335Z,81600.00
2019-06-25T08:36:19.335Z,83392.00
2019-06-25T08:37:19.363Z,68256.00
2019-06-25T08:38:19.295Z,62848.00
2019-06-25T08:39:19.264Z,59648.00
2019-06-25T08:40:20.456Z,66048.00
2019-06-25T08:41:19.264Z,70560.00
2019-06-25T08:42:19.289Z,76224.00
2019-06-25T08:43:19.208Z,88416.00
2019-06-25T08:44:19.264Z,90816.00
2019-06-25T08:45:19.216Z,89728.00
2019-06-25T08:46:19.226Z,86368.00
2019-06-25T08:47:19.142Z,90560.00
2019-06-25T08:48:19.127Z,92704.00
2019-06-25T08:49:19.120Z,94880.00
2019-06-25T08:50:19.073Z,104928.00
2019-06-25T08:51:19.037Z,110208.00
2019-06-25T08:52:19.037Z,113760.00
2019-06-25T08:53:19.010Z,117888.00
2019-06-25T08:54:18.985Z,111968.00
2019-06-25T08:55:19.038Z,103744.00
2019-06-25T08:56:18.945Z,98208.00
2019-06-25T08:57:18.927Z,100896.00
2019-06-25T08:58:18.905Z,93632.00
2019-06-25T08:59:18.889Z,88000.00
2019-06-25T09:00:18.883Z,93280.00
2019-06-25T09:01:18.868Z,90528.00
2019-06-25T09:02:18.925Z,88512.00
2019-06-25T09:03:18.822Z,92288.00
2019-06-25T09:04:18.832Z,89728.00
2019-06-25T09:05:18.821Z,85824.00
2019-06-25T09:06:18.766Z,75168.00
2019-06-25T09:07:18.739Z,76768.00
2019-06-25T09:08:18.723Z,68384.00
2019-06-25T09:09:18.719Z,77408.00
2019-06-25T09:10:18.685Z,83968.00
2019-06-25T09:11:18.663Z,93056.00
2019-06-25T09:12:18.653Z,107744.00
2019-06-25T09:13:18.631Z,108896.00
2019-06-25T09:14:18.624Z,111424.00
2019-06-25T09:15:18.601Z,113376.00
2019-06-25T09:16:18.601Z,122624.00
2019-06-25T09:17:18.590Z,115008.00
2019-06-25T09:18:18.648Z,110176.00
2019-06-25T09:19:18.514Z,110752.00
2019-06-25T09:20:18.549Z,103168.00
2019-06-25T09:21:18.510Z,97056.00
2019-06-25T09:22:18.516Z,100576.00
2019-06-25T09:23:18.627Z,99360.00
2019-06-25T09:24:18.421Z,96064.00
2019-06-25T09:25:18.412Z,92800.00
2019-06-25T09:26:18.392Z,94176.00
2019-06-25T09:27:18.457Z,90624.00
2019-06-25T09:28:18.349Z,94656.00
2019-06-25T09:29:18.329Z,99008.00
2019-06-25T09:30:18.362Z,95200.00
2019-06-25T09:31:18.304Z,88320.00
2019-06-25T09:32:18.283Z,85120.00
2019-06-25T09:33:18.440Z,93600.00
2019-06-25T09:34:18.274Z,92064.00
2019-06-25T09:35:20.096Z,91136.00
2019-06-25T09:36:18.227Z,92896.00
2019-06-25T09:37:18.204Z,97760.00
2019-06-25T09:38:18.210Z,104864.00
2019-06-25T09:39:18.234Z,106912.00
2019-06-25T09:40:18.132Z,105408.00
2019-06-25T09:41:18.117Z,100352.00
2019-06-25T09:42:18.094Z,103520.00
2019-06-25T09:43:18.120Z,107488.00
2019-06-25T09:44:18.069Z,103392.00
2019-06-25T09:45:18.101Z,100192.00
2019-06-25T09:46:18.024Z,108576.00
2019-06-25T09:47:18.276Z,106816.00
2019-06-25T09:48:18.049Z,100384.00
2019-06-25T09:49:17.976Z,108352.00
2019-06-25T09:50:17.971Z,108192.00
2019-06-25T09:51:18.008Z,108800.00
2019-06-25T09:52:17.925Z,107808.00
2019-06-25T09:53:21.124Z,111776.00
2019-06-25T09:54:17.944Z,104256.00
2019-06-25T09:55:17.883Z,106144.00
2019-06-25T09:56:17.879Z,115264.00
2019-06-25T09:57:17.876Z,119360.00
2019-06-25T09:58:17.822Z,109440.00
2019-06-25T09:59:17.836Z,110048.00
2019-06-25T10:00:17.787Z,116576.00
2019-06-25T10:01:26.639Z,107936.00
2019-06-25T10:02:17.755Z,100128.00
2019-06-25T10:03:17.713Z,97472.00
2019-06-25T10:04:17.695Z,104864.00
2019-06-25T10:05:30.526Z,105632.00
2019-06-25T10:06:17.663Z,107680.00
2019-06-25T10:07:17.639Z,103104.00
2019-06-25T10:08:17.631Z,107648.00
2019-06-25T10:09:17.609Z,110496.00
2019-06-25T10:10:17.588Z,107424.00
2019-06-25T10:11:17.573Z,104128.00
2019-06-25T10:12:17.576Z,100384.00
2019-06-25T10:13:17.543Z,92928.00
2019-06-25T10:14:17.532Z,100064.00
2019-06-25T10:15:17.565Z,102976.00
2019-06-25T10:16:17.521Z,112000.00
2019-06-25T10:17:17.496Z,109824.00
2019-06-25T10:18:17.473Z,103904.00
2019-06-25T10:19:17.474Z,106784.00
2019-06-25T10:20:17.419Z,109280.00
2019-06-25T10:21:17.419Z,108608.00
2019-06-25T10:22:17.413Z,102080.00
2019-06-25T10:23:17.365Z,96608.00
2019-06-25T10:24:17.352Z,103200.00
2019-06-25T10:25:17.337Z,110752.00
2019-06-25T10:26:17.315Z,112384.00
2019-06-25T10:27:17.305Z,110496.00
2019-06-25T10:28:29.062Z,114752.00
2019-06-25T10:29:17.261Z,128000.00
2019-06-25T10:30:17.271Z,137376.00
2019-06-25T10:31:17.228Z,132672.00
2019-06-25T10:32:17.245Z,109984.00
2019-06-25T10:33:17.205Z,117760.00
2019-06-25T10:34:17.212Z,126144.00
2019-06-25T10:35:17.179Z,123040.00
2019-06-25T10:36:17.197Z,115136.00
2019-06-25T10:37:17.140Z,117888.00
2019-06-25T10:38:17.126Z,120768.00
2019-06-25T10:39:17.101Z,120928.00
2019-06-25T10:40:17.087Z,115776.00
2019-06-25T10:41:17.096Z,118272.00
2019-06-25T10:42:17.044Z,118176.00
2019-06-25T10:43:17.026Z,112288.00
2019-06-25T10:44:17.026Z,114176.00
2019-06-25T10:45:17.033Z,122368.00
2019-06-25T10:46:17.021Z,130080.00
2019-06-25T10:47:16.984Z,122656.00
2019-06-25T10:48:17.012Z,120480.00
2019-06-25T10:49:16.943Z,119552.00
2019-06-25T10:50:16.905Z,115872.00
2019-06-25T10:51:16.967Z,103232.00
2019-06-25T10:52:16.888Z,110848.00
2019-06-25T10:53:16.914Z,112288.00
2019-06-25T10:54:16.862Z,105632.00
2019-06-25T10:55:16.861Z,104096.00
2019-06-25T10:56:16.827Z,106016.00
2019-06-25T10:57:16.894Z,94528.00
2019-06-25T10:58:16.776Z,96896.00
2019-06-25T10:59:16.756Z,111232.00
2019-06-25T11:00:16.807Z,112480.00
2019-06-25T11:01:16.715Z,94624.00
2019-06-25T11:02:16.717Z,91584.00
2019-06-25T11:03:16.696Z,101440.00
2019-06-25T11:04:16.680Z,104640.00
2019-06-25T11:05:16.658Z,107808.00
2019-06-25T11:06:16.674Z,122976.00
2019-06-25T11:07:16.696Z,112736.00
2019-06-25T11:08:16.621Z,99872.00
2019-06-25T11:09:16.598Z,115072.00
2019-06-25T11:10:16.624Z,123392.00
2019-06-25T11:11:16.561Z,123104.00
2019-06-25T11:12:16.549Z,104768.00
2019-06-25T11:13:16.581Z,114720.00
2019-06-25T11:14:16.506Z,104448.00
2019-06-25T11:15:16.483Z,99712.00
2019-06-25T11:16:16.478Z,95392.00
2019-06-25T11:17:16.451Z,98176.00
2019-06-25T11:18:16.427Z,107744.00
2019-06-25T11:19:16.432Z,110720.00
2019-06-25T11:20:16.407Z,107616.00
2019-06-25T11:21:16.385Z,96448.00
2019-06-25T11:22:16.360Z,93376.00
2019-06-25T11:23:16.357Z,94400.00
2019-06-25T11:24:16.335Z,84640.00
2019-06-25T11:25:16.327Z,83520.00
2019-06-25T11:26:23.296Z,88000.00
2019-06-25T11:27:16.323Z,83488.00
2019-06-25T11:28:16.295Z,83008.00
2019-06-25T11:29:16.282Z,84384.00
2019-06-25T11:30:16.262Z,100224.00
2019-06-25T11:31:16.275Z,103520.00
2019-06-25T11:32:16.229Z,93440.00
2019-06-25T11:33:16.231Z,93056.00
2019-06-25T11:34:16.157Z,90592.00
2019-06-25T11:35:16.211Z,92800.00
2019-06-25T11:36:21.222Z,104192.00
2019-06-25T11:37:16.113Z,109696.00
2019-06-25T11:38:16.143Z,99840.00
2019-06-25T11:39:16.113Z,103360.00
2019-06-25T11:40:16.075Z,115360.00
2019-06-25T11:41:16.057Z,114048.00
2019-06-25T11:42:16.055Z,111456.00
2019-06-25T11:43:16.030Z,110880.00
2019-06-25T11:44:16.014Z,106112.00
2019-06-25T11:45:16.006Z,98432.00
2019-06-25T11:46:19.560Z,89824.00
2019-06-25T11:47:15.992Z,63456.00
2019-06-25T11:48:15.954Z,52256.00
2019-06-25T11:49:15.951Z,51168.00
2019-06-25T11:50:15.929Z,49536.00
2019-06-25T11:51:15.906Z,49728.00
2019-06-25T11:52:15.890Z,52480.00
2019-06-25T11:53:15.876Z,52736.00
2019-06-25T11:54:15.874Z,51136.00
2019-06-25T11:55:15.833Z,48768.00
2019-06-25T11:56:15.851Z,48032.00
2019-06-25T11:57:15.798Z,49088.00
2019-06-25T11:58:15.822Z,49696.00
2019-06-25T11:59:15.783Z,51168.00
2019-06-25T12:00:15.781Z,50080.00
2019-06-25T12:01:15.732Z,51808.00
2019-06-25T12:02:15.717Z,49408.00